Time;durP1;ratioP1;P1;durP2;ratioP2;P2;SDS_P1;SDS_P2;PMS_P1;PMS_P2;Temp;Humidity;BMP_temperature;BMP_pressure;BME280_temperature;BME280_humidity;BME280_pressure;Samples;Min_cycle;Max_cycle;Signal;HPM_P1;HPM_P2
2023/04/21 00:00:14;;;;;;;11.10;5.47;;;;;;;;;;5076143;28;20032;-85
2023/04/21 00:02:40;;;;;;;11.82;5.18;;;;;;;;;;5075677;28;20101;-87
2023/04/21 00:05:08;;;;;;;9.77;5.65;;;;;;;;;;5076206;28;20442;-83
2023/04/21 00:07:34;;;;;;;17.08;6.65;;;;;;;;;;5075198;28;20043;-86
2023/04/21 00:09:59;;;;;;;12.50;5.82;;;;;;;;;;5076210;28;20458;-85
2023/04/21 00:12:25;;;;;;;14.73;5.05;;;;;;;;;;5075131;28;20522;-85
2023/04/21 00:14:50;;;;;;;16.52;5.88;;;;;;;;;;5075855;28;20437;-84
2023/04/21 00:17:15;;;;;;;10.27;5.68;;;;;;;;;;5057783;28;20044;-84
2023/04/21 00:19:41;;;;;;;11.80;5.43;;;;;;;;;;5074465;28;20040;-84
2023/04/21 00:22:10;;;;;;;10.43;5.38;;;;;;;;;;5075609;28;20386;-85
2023/04/21 00:24:36;;;;;;;15.25;5.80;;;;;;;;;;5058551;28;20127;-84
2023/04/21 00:27:02;;;;;;;13.05;6.07;;;;;;;;;;5074558;28;20182;-84
2023/04/21 00:29:28;;;;;;;9.25;5.25;;;;;;;;;;5074734;28;20338;-84
2023/04/21 00:31:53;;;;;;;12.30;5.38;;;;;;;;;;5075223;28;20054;-85
2023/04/21 00:34:19;;;;;;;14.73;5.72;;;;;;;;;;5075463;28;20040;-85
2023/04/21 00:36:44;;;;;;;12.05;6.07;;;;;;;;;;5074486;28;20025;-86
2023/04/21 00:39:09;;;;;;;13.10;5.95;;;;;;;;;;5057221;28;20040;-87
2023/04/21 00:41:35;;;;;;;10.52;5.25;;;;;;;;;;5074272;28;20033;-87
2023/04/21 00:44:02;;;;;;;14.20;6.43;;;;;;;;;;5057300;28;20033;-84
2023/04/21 00:46:28;;;;;;;11.95;5.63;;;;;;;;;;5073941;28;20113;-86
2023/04/21 00:48:53;;;;;;;9.75;5.32;;;;;;;;;;5074071;28;20429;-85
2023/04/21 00:51:19;;;;;;;14.55;6.43;;;;;;;;;;5075169;28;20040;-85
2023/04/21 00:53:44;;;;;;;10.88;5.80;;;;;;;;;;5057595;28;20043;-86
2023/04/21 00:56:10;;;;;;;13.80;6.20;;;;;;;;;;5073763;28;20025;-85
2023/04/21 00:58:36;;;;;;;13.50;6.15;;;;;;;;;;5075147;28;20085;-84
2023/04/21 01:01:01;;;;;;;10.82;5.55;;;;;;;;;;5074565;28;20036;-85
2023/04/21 01:03:27;;;;;;;14.50;6.22;;;;;;;;;;5074651;28;20451;-85
2023/04/21 01:05:53;;;;;;;10.02;5.60;;;;;;;;;;5073793;28;20035;-85
2023/04/21 01:08:19;;;;;;;12.68;6.05;;;;;;;;;;5057193;28;20346;-86
2023/04/21 01:10:44;;;;;;;11.07;5.80;;;;;;;;;;5073478;28;20028;-84
2023/04/21 01:13:09;;;;;;;14.75;6.15;;;;;;;;;;5073672;28;20154;-86
2023/04/21 01:15:35;;;;;;;10.52;5.50;;;;;;;;;;5056838;28;20479;-86
2023/04/21 01:18:00;;;;;;;17.55;6.15;;;;;;;;;;5074769;28;20097;-85
2023/04/21 01:20:28;;;;;;;11.82;5.68;;;;;;;;;;5074892;28;20021;-85
2023/04/21 01:22:53;;;;;;;12.07;5.95;;;;;;;;;;5074478;28;20081;-84
2023/04/21 01:25:21;;;;;;;11.20;5.25;;;;;;;;;;5074718;28;20028;-84
2023/04/21 01:27:47;;;;;;;12.45;5.90;;;;;;;;;;5040815;28;20036;-86
2023/04/21 01:30:12;;;;;;;14.93;6.53;;;;;;;;;;5056504;28;20082;-86
2023/04/21 01:32:50;;;;;;;14.18;5.72;;;;;;;;;;5040347;28;20066;-86
2023/04/21 01:35:16;;;;;;;12.82;6.30;;;;;;;;;;5040924;28;20028;-85
2023/04/21 01:37:41;;;;;;;16.88;6.45;;;;;;;;;;5074611;28;20025;-85
2023/04/21 01:40:08;;;;;;;13.00;6.65;;;;;;;;;;5074625;28;20032;-84
2023/04/21 01:42:37;;;;;;;13.07;6.30;;;;;;;;;;5074495;28;20050;-85
2023/04/21 01:45:02;;;;;;;18.52;6.25;;;;;;;;;;5074180;28;20028;-85
2023/04/21 01:47:28;;;;;;;12.93;6.32;;;;;;;;;;5074048;28;20486;-85
2023/04/21 01:49:53;;;;;;;17.77;6.43;;;;;;;;;;5074351;28;20033;-87
2023/04/21 01:52:19;;;;;;;12.77;6.05;;;;;;;;;;5074121;28;20024;-87
2023/04/21 01:54:44;;;;;;;16.48;7.65;;;;;;;;;;5039063;28;20419;-85
2023/04/21 01:57:10;;;;;;;13.02;6.05;;;;;;;;;;5074254;28;20024;-87
2023/04/21 01:59:35;;;;;;;14.98;6.22;;;;;;;;;;5072568;28;20040;-84
2023/04/21 02:02:00;;;;;;;14.50;6.40;;;;;;;;;;5073172;28;20427;-86
2023/04/21 02:04:26;;;;;;;11.38;6.35;;;;;;;;;;5072916;28;20033;-84
2023/04/21 02:06:51;;;;;;;13.57;6.32;;;;;;;;;;5058410;28;20028;-84
2023/04/21 02:09:17;;;;;;;16.23;7.15;;;;;;;;;;5054111;28;20037;-84
2023/04/21 02:11:42;;;;;;;13.52;6.53;;;;;;;;;;5053783;28;20021;-83
2023/04/21 02:14:08;;;;;;;16.48;6.57;;;;;;;;;;5054056;28;20049;-83
2023/04/21 02:16:33;;;;;;;18.85;6.80;;;;;;;;;;5053922;28;20052;-84
2023/04/21 02:18:59;;;;;;;14.55;5.97;;;;;;;;;;5055567;28;20025;-84
2023/04/21 02:21:25;;;;;;;15.23;7.55;;;;;;;;;;5040593;28;20021;-86
2023/04/21 02:23:51;;;;;;;12.07;6.47;;;;;;;;;;5058965;28;20044;-83
2023/04/21 02:27:13;;;;;;;12.95;6.15;;;;;;;;;;5047630;28;20025;-84
2023/04/21 02:29:39;;;;;;;13.18;5.90;;;;;;;;;;5060600;28;20095;-85
2023/04/21 02:32:05;;;;;;;20.95;7.05;;;;;;;;;;5068326;28;20021;-85
2023/04/21 02:34:30;;;;;;;17.50;6.82;;;;;;;;;;5050207;28;20029;-84
2023/04/21 02:36:55;;;;;;;17.63;7.50;;;;;;;;;;5067782;28;20033;-84
2023/04/21 02:39:21;;;;;;;12.50;6.15;;;;;;;;;;5039936;28;20413;-83
2023/04/21 02:41:46;;;;;;;19.08;7.53;;;;;;;;;;5056582;28;20095;-83
2023/04/21 02:44:12;;;;;;;16.20;7.78;;;;;;;;;;5040030;28;20095;-83
2023/04/21 02:46:40;;;;;;;17.80;7.90;;;;;;;;;;5056429;28;20033;-82
2023/04/21 02:49:06;;;;;;;17.48;7.45;;;;;;;;;;5057788;28;20393;-83
2023/04/21 02:51:31;;;;;;;19.60;7.32;;;;;;;;;;5039674;28;20032;-84
2023/04/21 02:54:25;;;;;;;16.70;7.43;;;;;;;;;;5056109;28;20021;-85
2023/04/21 02:56:51;;;;;;;13.25;6.72;;;;;;;;;;5061515;28;20029;-84
2023/04/21 02:59:16;;;;;;;16.33;7.35;;;;;;;;;;5066811;28;20044;-85
2023/04/21 03:01:41;;;;;;;19.15;7.10;;;;;;;;;;5058590;28;20040;-84
2023/04/21 03:04:07;;;;;;;31.48;7.40;;;;;;;;;;5058598;28;20083;-84
2023/04/21 03:06:32;;;;;;;18.10;7.40;;;;;;;;;;5064556;28;20048;-84
2023/04/21 03:08:58;;;;;;;18.33;7.47;;;;;;;;;;5083320;28;20100;-83
2023/04/21 03:11:23;;;;;;;16.58;7.53;;;;;;;;;;5085189;28;20029;-85
2023/04/21 03:13:49;;;;;;;20.42;7.25;;;;;;;;;;5080021;28;20048;-84
2023/04/21 03:16:14;;;;;;;18.48;8.02;;;;;;;;;;5078308;28;20512;-84
2023/04/21 03:18:40;;;;;;;16.02;7.45;;;;;;;;;;5077092;28;20159;-84
2023/04/21 03:21:05;;;;;;;16.00;7.68;;;;;;;;;;5077234;28;20036;-84
2023/04/21 03:23:31;;;;;;;18.02;6.70;;;;;;;;;;5075916;28;20035;-83
2023/04/21 03:25:56;;;;;;;15.85;7.53;;;;;;;;;;5076860;28;20120;-85
2023/04/21 03:28:21;;;;;;;15.75;7.55;;;;;;;;;;5076098;28;20048;-85
2023/04/21 03:30:47;;;;;;;17.70;7.53;;;;;;;;;;5075118;28;20041;-86
2023/04/21 03:33:12;;;;;;;18.13;8.25;;;;;;;;;;5077290;28;20064;-84
2023/04/21 03:35:38;;;;;;;19.92;8.23;;;;;;;;;;5077555;28;20036;-84
2023/04/21 03:38:03;;;;;;;21.65;8.45;;;;;;;;;;5075463;28;20043;-82
2023/04/21 03:40:29;;;;;;;22.25;7.70;;;;;;;;;;5075307;28;20035;-84
2023/04/21 03:42:55;;;;;;;18.88;8.30;;;;;;;;;;5075493;28;20029;-84
2023/04/21 03:45:21;;;;;;;20.48;8.63;;;;;;;;;;5077002;28;20365;-86
2023/04/21 03:47:47;;;;;;;17.77;8.32;;;;;;;;;;5076420;28;20029;-83
2023/04/21 03:50:13;;;;;;;22.13;8.85;;;;;;;;;;5058516;28;20113;-85
2023/04/21 03:52:39;;;;;;;18.23;8.63;;;;;;;;;;5075739;28;20438;-84
2023/04/21 03:55:07;;;;;;;16.65;7.90;;;;;;;;;;5076274;28;20124;-85
2023/04/21 03:57:33;;;;;;;18.85;8.45;;;;;;;;;;5075587;28;20024;-86
2023/04/21 03:59:58;;;;;;;24.50;8.60;;;;;;;;;;5075258;28;20384;-84
2023/04/21 04:02:24;;;;;;;22.67;8.15;;;;;;;;;;5077428;28;20025;-84
2023/04/21 04:04:49;;;;;;;17.35;8.20;;;;;;;;;;5077094;28;20024;-84
2023/04/21 04:07:16;;;;;;;19.13;8.15;;;;;;;;;;5075634;28;20457;-85
2023/04/21 04:09:42;;;;;;;23.67;9.32;;;;;;;;;;5071520;28;20020;-85
2023/04/21 04:12:07;;;;;;;21.92;8.10;;;;;;;;;;5075510;28;20016;-84
2023/04/21 04:14:35;;;;;;;19.77;8.27;;;;;;;;;;5073515;28;20049;-85
2023/04/21 04:17:01;;;;;;;24.35;8.63;;;;;;;;;;5073107;28;20021;-85
2023/04/21 04:19:32;;;;;;;15.77;7.63;;;;;;;;;;5076247;28;20043;-83
2023/04/21 04:22:03;;;;;;;19.95;8.02;;;;;;;;;;5076088;28;20338;-84
2023/04/21 04:24:29;;;;;;;;;;;;;;;;;;5076963;28;20055;-86
2023/04/21 04:26:56;;;;;;;15.55;7.07;;;;;;;;;;5077428;28;19919;-84
2023/04/21 04:29:22;;;;;;;19.58;8.02;;;;;;;;;;5076257;28;20021;-83
2023/04/21 04:31:49;;;;;;;17.98;7.78;;;;;;;;;;5074925;28;20594;-85
2023/04/21 04:34:14;;;;;;;18.02;7.50;;;;;;;;;;5060776;28;20025;-85
2023/04/21 04:36:41;;;;;;;16.50;6.88;;;;;;;;;;5074855;28;20020;-85
2023/04/21 04:39:07;;;;;;;21.85;8.10;;;;;;;;;;5075564;28;20033;-84
2023/04/21 04:41:35;;;;;;;20.35;8.32;;;;;;;;;;5074830;28;20036;-85
2023/04/21 04:44:03;;;;;;;28.50;8.38;;;;;;;;;;5066652;28;20452;-86
2023/04/21 06:47:34;;;;;;;7.57;4.50;;;;;;;;;;5032125;26;20053;-85
2023/04/21 07:34:25;;;;;;;11.05;3.78;;;;;;;;;;5008406;28;20097;-84
2023/04/21 07:36:51;;;;;;;6.00;3.78;;;;;;;;;;5031967;28;20021;-85
2023/04/21 07:39:16;;;;;;;6.15;3.88;;;;;;;;;;5014148;28;20064;-86
2023/04/21 07:41:48;;;;;;;7.45;3.85;;;;;;;;;;5050175;28;20053;-87
2023/04/21 07:44:18;;;;;;;8.05;4.00;;;;;;;;;;5091310;22;20795;-83
2023/04/21 07:52:30;;;;;;;7.00;3.95;;;;;;;;;;4704097;26;20512;-87
2023/04/21 07:55:05;;;;;;;8.48;3.83;;;;;;;;;;5039244;28;20056;-86
2023/04/21 08:10:11;;;;;;;7.60;4.25;;;;;;;;;;5183344;22;20106;-86
2023/04/21 08:12:58;;;;;;;8.50;4.10;;;;;;;;;;5040038;28;20033;-87
2023/04/21 08:16:02;;;;;;;7.28;4.28;;;;;;;;;;5047261;28;20061;-86
2023/04/21 08:18:36;;;;;;;7.18;4.07;;;;;;;;;;5006300;28;20038;-84
2023/04/21 08:21:17;;;;;;;9.32;4.13;;;;;;;;;;5015258;28;20371;-82
2023/04/21 08:23:54;;;;;;;5.85;4.05;;;;;;;;;;5016655;28;20105;-83
2023/04/21 08:26:33;;;;;;;4.95;3.90;;;;;;;;;;5033427;28;20029;-82
2023/04/21 08:29:43;;;;;;;7.38;4.45;;;;;;;;;;4999960;28;20406;-84
2023/04/21 08:32:26;;;;;;;6.53;3.78;;;;;;;;;;5018555;28;20460;-86
2023/04/21 08:34:54;;;;;;;8.57;3.70;;;;;;;;;;5020118;28;20104;-82
2023/04/21 08:38:07;;;;;;;;;;;;;;;;;;;;;
2023/04/21 08:43:56;;;;;;;6.28;3.67;;;;;;;;;;4989288;22;20079;-83
2023/04/21 08:46:43;;;;;;;;;;;;;;;;;;;;;
2023/04/21 08:49:11;;;;;;;6.60;3.58;;;;;;;;;;5035651;28;20061;-80
2023/04/21 08:55:08;;;;;;;7.45;4.30;;;;;;;;;;5029154;28;20045;-81
2023/04/21 08:57:34;;;;;;;6.68;3.85;;;;;;;;;;5017264;28;20362;-83
2023/04/21 09:03:29;;;;;;;5.60;3.38;;;;;;;;;;5053349;22;20140;-84
2023/04/21 09:06:23;;;;;;;;;;;;;;;;;;;;;
2023/04/21 09:09:49;;;;;;;5.43;3.50;;;;;;;;;;5026529;28;20561;-83
2023/04/21 09:12:15;;;;;;;6.95;3.90;;;;;;;;;;4923064;28;20072;-81
2023/04/21 09:14:53;;;;;;;4.97;3.22;;;;;;;;;;4958667;28;20058;-84
2023/04/21 09:17:35;;;;;;;6.35;3.55;;;;;;;;;;4959561;28;20051;-83
2023/04/21 09:23:30;;;;;;;4.70;3.22;;;;;;;;;;4899283;29;20140;-84
2023/04/21 09:28:58;;;;;;;6.95;3.88;;;;;;;;;;4865137;29;20113;-82
2023/04/21 09:31:29;;;;;;;5.78;3.45;;;;;;;;;;4853425;29;20053;-81
2023/04/21 09:37:12;;;;;;;4.82;3.25;;;;;;;;;;4954080;28;20038;-84
2023/04/21 09:43:20;;;;;;;5.78;3.20;;;;;;;;;;4908563;29;20079;-84
2023/04/21 09:45:45;;;;;;;4.82;3.03;;;;;;;;;;4911299;29;20051;-79
2023/04/21 09:48:11;;;;;;;4.20;2.85;;;;;;;;;;4982029;28;20060;-81
2023/04/21 09:50:36;;;;;;;5.47;3.33;;;;;;;;;;4995410;28;20470;-82
2023/04/21 09:53:05;;;;;;;6.70;3.10;;;;;;;;;;5018988;28;20018;-84
2023/04/21 09:58:40;;;;;;;6.20;3.38;;;;;;;;;;5023850;28;20032;-83
2023/04/21 10:01:06;;;;;;;3.20;2.38;;;;;;;;;;5020025;28;20037;-83
2023/04/21 10:06:20;;;;;;;5.18;3.00;;;;;;;;;;5055551;28;20620;-81
2023/04/21 10:08:46;;;;;;;3.67;2.85;;;;;;;;;;5034509;28;20048;-84
2023/04/21 10:11:12;;;;;;;4.22;2.38;;;;;;;;;;5046287;28;20025;-82
2023/04/21 10:13:37;;;;;;;4.97;2.90;;;;;;;;;;5037252;28;20072;-81
2023/04/21 10:16:06;;;;;;;5.32;3.20;;;;;;;;;;5018985;28;20032;-81
2023/04/21 10:18:33;;;;;;;7.95;3.40;;;;;;;;;;5036631;28;20060;-81
2023/04/21 10:21:04;;;;;;;7.88;3.58;;;;;;;;;;5021993;28;20074;-82
2023/04/21 10:23:45;;;;;;;6.63;3.03;;;;;;;;;;5059334;28;20029;-82
2023/04/21 10:26:21;;;;;;;6.35;3.35;;;;;;;;;;5022195;28;20037;-84
2023/04/21 10:29:05;;;;;;;4.18;2.75;;;;;;;;;;5021808;28;20033;-82
2023/04/21 10:31:43;;;;;;;4.47;2.70;;;;;;;;;;5050916;28;20033;-81
2023/04/21 10:34:12;;;;;;;4.40;2.92;;;;;;;;;;5026835;28;20109;-81
2023/04/21 10:36:52;;;;;;;5.20;3.10;;;;;;;;;;5059550;28;20033;-82
2023/04/21 10:39:30;;;;;;;6.13;3.10;;;;;;;;;;5060319;28;20035;-83
2023/04/21 10:41:57;;;;;;;5.78;2.72;;;;;;;;;;5059558;28;20021;-83
2023/04/21 10:44:23;;;;;;;4.88;3.10;;;;;;;;;;5026791;28;20036;-82
2023/04/21 10:46:50;;;;;;;4.97;2.85;;;;;;;;;;5024766;28;20022;-82
2023/04/21 10:49:23;;;;;;;8.05;3.22;;;;;;;;;;5026714;28;20369;-80
2023/04/21 10:51:58;;;;;;;3.58;2.38;;;;;;;;;;5025145;28;20038;-81
2023/04/21 10:54:24;;;;;;;4.10;2.90;;;;;;;;;;5062523;28;20025;-83
2023/04/21 10:56:53;;;;;;;3.88;2.80;;;;;;;;;;5042446;28;20476;-81
2023/04/21 10:59:19;;;;;;;10.15;3.00;;;;;;;;;;5012706;28;20037;-80
2023/04/21 11:01:44;;;;;;;4.70;2.72;;;;;;;;;;5062946;28;20029;-81
2023/04/21 11:04:14;;;;;;;4.78;3.03;;;;;;;;;;5025218;28;20021;-81
2023/04/21 11:06:39;;;;;;;4.65;2.40;;;;;;;;;;5041625;28;20048;-82
2023/04/21 11:09:05;;;;;;;3.75;2.63;;;;;;;;;;5042320;28;20033;-80
2023/04/21 11:11:30;;;;;;;5.63;3.17;;;;;;;;;;5055275;28;20078;-80
2023/04/21 11:13:58;;;;;;;3.10;2.22;;;;;;;;;;5008709;28;20393;-83
2023/04/21 11:16:24;;;;;;;5.45;2.80;;;;;;;;;;5012318;28;20418;-81
2023/04/21 11:18:49;;;;;;;3.03;2.15;;;;;;;;;;5010475;28;20033;-81
2023/04/21 11:21:20;;;;;;;13.60;2.83;;;;;;;;;;5026907;28;20032;-83
2023/04/21 11:23:53;;;;;;;3.08;2.22;;;;;;;;;;5009263;28;20037;-83
2023/04/21 11:26:37;;;;;;;3.70;2.45;;;;;;;;;;5043761;28;20035;-81
2023/04/21 11:29:07;;;;;;;4.65;2.65;;;;;;;;;;5038513;28;20030;-81
2023/04/21 11:31:33;;;;;;;3.15;2.17;;;;;;;;;;5005427;28;20026;-81
2023/04/21 11:33:59;;;;;;;5.72;3.15;;;;;;;;;;5022539;28;20036;-80
2023/04/21 11:36:26;;;;;;;5.13;2.20;;;;;;;;;;5041696;28;20034;-81
2023/04/21 11:38:51;;;;;;;4.32;2.63;;;;;;;;;;5012903;28;20030;-79
2023/04/21 11:41:23;;;;;;;5.50;2.75;;;;;;;;;;5026289;28;20024;-79
2023/04/21 11:43:52;;;;;;;3.05;2.30;;;;;;;;;;5007203;28;20370;-80
2023/04/21 11:46:25;;;;;;;2.88;2.17;;;;;;;;;;5041464;28;20025;-79
2023/04/21 11:49:10;;;;;;;2.70;2.05;;;;;;;;;;5040553;28;20335;-82
2023/04/21 11:51:36;;;;;;;3.65;2.53;;;;;;;;;;5039405;28;20351;-82
2023/04/21 11:54:03;;;;;;;3.10;2.40;;;;;;;;;;5040569;28;20030;-82
2023/04/21 11:56:28;;;;;;;4.45;2.80;;;;;;;;;;5028409;28;20021;-82
2023/04/21 11:58:54;;;;;;;3.53;2.28;;;;;;;;;;5039547;28;20043;-82
2023/04/21 12:01:20;;;;;;;4.15;2.40;;;;;;;;;;5009347;28;20080;-82
2023/04/21 12:03:56;;;;;;;2.65;2.38;;;;;;;;;;5024660;28;20029;-82
2023/04/21 12:06:22;;;;;;;3.75;2.78;;;;;;;;;;5006164;28;20132;-82
2023/04/21 12:08:53;;;;;;;3.72;2.40;;;;;;;;;;5023480;28;20457;-81
2023/04/21 12:11:18;;;;;;;5.50;2.92;;;;;;;;;;5024626;28;20029;-81
2023/04/21 12:13:44;;;;;;;3.63;2.42;;;;;;;;;;5008632;28;20131;-80
2023/04/21 12:16:09;;;;;;;4.38;2.58;;;;;;;;;;4992655;28;20403;-81
2023/04/21 12:18:35;;;;;;;4.90;2.22;;;;;;;;;;5006390;28;20034;-81
2023/04/21 12:21:02;;;;;;;4.20;2.17;;;;;;;;;;5023842;28;20064;-81
2023/04/21 12:23:28;;;;;;;3.47;2.28;;;;;;;;;;4991368;28;20029;-82
2023/04/21 12:25:53;;;;;;;3.58;2.40;;;;;;;;;;5007193;28;20438;-81
2023/04/21 12:28:19;;;;;;;5.57;2.88;;;;;;;;;;5042769;28;20030;-79
2023/04/21 12:30:45;;;;;;;3.42;2.58;;;;;;;;;;5023774;28;20037;-80
2023/04/21 12:33:11;;;;;;;3.15;2.17;;;;;;;;;;5007667;28;20031;-82
2023/04/21 12:35:37;;;;;;;3.47;2.35;;;;;;;;;;5007615;28;20175;-82
2023/04/21 12:38:03;;;;;;;4.00;2.33;;;;;;;;;;5006662;28;20454;-83
2023/04/21 12:40:29;;;;;;;3.63;2.50;;;;;;;;;;5002273;28;21330;-81
2023/04/21 12:42:55;;;;;;;5.88;2.90;;;;;;;;;;5021761;28;20466;-82
2023/04/21 12:45:20;;;;;;;2.90;2.50;;;;;;;;;;5007263;28;20034;-80
2023/04/21 12:47:46;;;;;;;3.25;2.35;;;;;;;;;;5006213;28;20061;-82
2023/04/21 12:50:12;;;;;;;9.18;2.72;;;;;;;;;;5021936;28;20037;-80
2023/04/21 12:52:37;;;;;;;2.72;1.88;;;;;;;;;;5023712;28;20406;-82
2023/04/21 12:55:03;;;;;;;3.03;2.08;;;;;;;;;;5006452;28;20126;-82
2023/04/21 12:57:30;;;;;;;3.70;2.70;;;;;;;;;;5023293;28;20677;-83
2023/04/21 12:59:56;;;;;;;3.72;2.33;;;;;;;;;;5001283;28;20033;-82
2023/04/21 13:02:21;;;;;;;3.95;2.25;;;;;;;;;;4998940;28;20036;-82
2023/04/21 13:04:47;;;;;;;3.05;2.20;;;;;;;;;;5039955;28;20043;-81
2023/04/21 13:07:13;;;;;;;3.25;2.45;;;;;;;;;;5052801;28;20122;-82
2023/04/21 13:09:39;;;;;;;4.97;2.88;;;;;;;;;;5018792;28;20339;-81
2023/04/21 13:12:04;;;;;;;2.58;2.13;;;;;;;;;;5035253;28;20028;-82
2023/04/21 13:14:30;;;;;;;5.15;2.28;;;;;;;;;;5036292;28;20094;-82
2023/04/21 13:16:55;;;;;;;3.90;2.90;;;;;;;;;;5036574;28;20036;-83
2023/04/21 13:19:21;;;;;;;2.72;2.25;;;;;;;;;;5036958;28;20359;-83
2023/04/21 13:21:47;;;;;;;2.85;2.22;;;;;;;;;;5054135;28;20037;-83
2023/04/21 13:24:12;;;;;;;2.50;1.75;;;;;;;;;;5037114;28;20028;-83
2023/04/21 13:26:38;;;;;;;2.95;1.80;;;;;;;;;;5037331;28;20032;-83
2023/04/21 13:29:04;;;;;;;4.32;2.30;;;;;;;;;;5020847;28;20069;-82
2023/04/21 13:31:29;;;;;;;2.67;2.08;;;;;;;;;;5037040;28;20021;-83
2023/04/21 13:33:55;;;;;;;2.20;1.60;;;;;;;;;;5020528;28;20033;-82
2023/04/21 13:36:21;;;;;;;2.10;1.63;;;;;;;;;;5054669;28;20556;-82
2023/04/21 13:38:47;;;;;;;3.42;1.92;;;;;;;;;;5036385;28;20146;-83
2023/04/21 13:41:12;;;;;;;3.22;2.20;;;;;;;;;;5020790;28;20082;-83
2023/04/21 13:43:38;;;;;;;1.90;1.52;;;;;;;;;;5019930;28;20032;-82
2023/04/21 13:46:04;;;;;;;2.72;1.88;;;;;;;;;;4999899;28;20026;-82
2023/04/21 13:48:29;;;;;;;2.08;1.70;;;;;;;;;;5016465;28;20028;-82
2023/04/21 13:50:55;;;;;;;1.80;1.40;;;;;;;;;;5016145;28;20026;-82
2023/04/21 13:53:20;;;;;;;3.13;1.80;;;;;;;;;;5034204;28;20024;-82
2023/04/21 13:55:46;;;;;;;2.15;1.77;;;;;;;;;;5000110;28;20033;-83
2023/04/21 13:58:13;;;;;;;2.58;1.98;;;;;;;;;;5016355;28;20033;-83
2023/04/21 14:00:38;;;;;;;2.40;1.95;;;;;;;;;;5016503;28;20044;-83
2023/04/21 14:03:05;;;;;;;4.03;1.70;;;;;;;;;;5016102;28;20025;-84
2023/04/21 14:05:30;;;;;;;3.10;2.05;;;;;;;;;;5029620;28;20300;-84
2023/04/21 14:07:56;;;;;;;2.17;1.95;;;;;;;;;;5036671;28;20028;-82
2023/04/21 14:10:22;;;;;;;2.88;2.00;;;;;;;;;;5036077;28;20029;-81
2023/04/21 14:12:47;;;;;;;3.25;1.85;;;;;;;;;;5019286;28;20469;-82
2023/04/21 14:15:13;;;;;;;2.75;1.75;;;;;;;;;;5035248;28;20032;-82
2023/04/21 14:17:38;;;;;;;3.03;2.28;;;;;;;;;;5053245;28;20381;-82
2023/04/21 14:20:06;;;;;;;1.98;1.77;;;;;;;;;;5035832;28;20029;-82
2023/04/21 14:22:31;;;;;;;2.58;1.92;;;;;;;;;;5036004;28;20422;-81
2023/04/21 14:24:57;;;;;;;2.30;1.83;;;;;;;;;;5052459;28;20025;-81
2023/04/21 14:27:22;;;;;;;7.55;2.90;;;;;;;;;;5035977;28;20025;-83
2023/04/21 14:29:48;;;;;;;5.15;2.50;;;;;;;;;;5035792;28;20063;-83
2023/04/21 14:32:13;;;;;;;6.28;2.25;;;;;;;;;;5035391;28;20028;-83
2023/04/21 14:34:38;;;;;;;3.17;2.03;;;;;;;;;;5052408;28;20180;-82
2023/04/21 14:37:04;;;;;;;2.92;1.95;;;;;;;;;;5035876;28;20080;-82
2023/04/21 14:39:30;;;;;;;2.05;1.52;;;;;;;;;;5035974;28;20190;-82
2023/04/21 14:41:56;;;;;;;7.68;2.20;;;;;;;;;;5035688;28;20029;-82
2023/04/21 14:44:21;;;;;;;2.28;1.90;;;;;;;;;;5014562;28;20041;-81
2023/04/21 14:46:47;;;;;;;3.08;2.08;;;;;;;;;;5034978;28;20220;-80
2023/04/21 14:49:12;;;;;;;1.92;1.73;;;;;;;;;;5035264;28;20120;-80
2023/04/21 14:51:40;;;;;;;3.05;1.98;;;;;;;;;;5035149;28;20065;-79
2023/04/21 14:54:05;;;;;;;2.65;1.90;;;;;;;;;;5019178;28;20075;-81
2023/04/21 14:56:30;;;;;;;3.45;1.88;;;;;;;;;;5019247;28;20446;-80
2023/04/21 14:58:56;;;;;;;3.47;2.17;;;;;;;;;;5053150;28;20132;-80
2023/04/21 15:01:22;;;;;;;2.72;2.00;;;;;;;;;;5018702;28;20033;-81
2023/04/21 15:03:47;;;;;;;3.50;1.90;;;;;;;;;;5018973;28;20025;-81
2023/04/21 15:06:12;;;;;;;3.00;1.90;;;;;;;;;;5035095;28;20052;-81
2023/04/21 15:08:39;;;;;;;2.53;1.85;;;;;;;;;;5035001;28;20032;-81
2023/04/21 15:11:05;;;;;;;3.35;1.85;;;;;;;;;;5053053;28;20056;-81
2023/04/21 15:13:31;;;;;;;3.40;2.05;;;;;;;;;;5035277;28;20068;-81
2023/04/21 15:15:56;;;;;;;2.72;1.90;;;;;;;;;;5018439;28;20502;-82
2023/04/21 15:18:22;;;;;;;5.55;2.08;;;;;;;;;;5019032;28;20036;-83
2023/04/21 15:20:47;;;;;;;3.47;2.33;;;;;;;;;;5035195;28;20071;-79
2023/04/21 15:23:13;;;;;;;2.65;1.95;;;;;;;;;;5035318;28;20453;-81
2023/04/21 15:25:40;;;;;;;4.07;1.77;;;;;;;;;;5035979;28;20334;-81
2023/04/21 15:28:06;;;;;;;2.63;1.83;;;;;;;;;;5022350;28;20033;-81
2023/04/21 15:30:32;;;;;;;3.03;2.28;;;;;;;;;;5005209;28;20406;-81
2023/04/21 15:32:57;;;;;;;4.05;2.28;;;;;;;;;;5005993;28;20029;-81
2023/04/21 15:35:23;;;;;;;5.50;2.58;;;;;;;;;;5022354;28;20024;-81
2023/04/21 15:37:49;;;;;;;5.20;3.00;;;;;;;;;;5038727;28;20036;-81
2023/04/21 15:40:14;;;;;;;5.35;2.95;;;;;;;;;;5038665;28;20076;-83
2023/04/21 15:42:39;;;;;;;6.78;2.80;;;;;;;;;;5056254;28;20025;-81
2023/04/21 15:45:07;;;;;;;3.33;2.20;;;;;;;;;;5038321;28;20047;-81
2023/04/21 15:47:33;;;;;;;3.40;2.13;;;;;;;;;;5036566;28;20342;-81
2023/04/21 15:49:58;;;;;;;4.25;2.33;;;;;;;;;;5019796;28;20029;-82
2023/04/21 15:52:23;;;;;;;4.20;2.60;;;;;;;;;;5021635;28;20444;-82
2023/04/21 15:54:49;;;;;;;3.85;2.70;;;;;;;;;;5056096;28;20082;-81
2023/04/21 15:57:15;;;;;;;5.93;2.60;;;;;;;;;;5038139;28;20029;-82
2023/04/21 15:59:40;;;;;;;9.32;3.45;;;;;;;;;;5037590;28;20051;-81
2023/04/21 16:02:06;;;;;;;7.20;2.90;;;;;;;;;;5038337;28;20354;-82
2023/04/21 16:04:31;;;;;;;5.75;3.00;;;;;;;;;;5004933;28;20044;-82
2023/04/21 16:06:57;;;;;;;5.28;3.20;;;;;;;;;;5055667;28;20028;-82
2023/04/21 16:09:22;;;;;;;3.35;2.30;;;;;;;;;;5055501;28;20110;-84
2023/04/21 16:11:50;;;;;;;3.80;2.42;;;;;;;;;;5037643;28;20106;-82
2023/04/21 16:14:16;;;;;;;6.63;2.95;;;;;;;;;;5021714;28;20020;-81
2023/04/21 16:16:43;;;;;;;3.90;2.85;;;;;;;;;;5021398;28;20031;-81
2023/04/21 16:19:08;;;;;;;5.07;2.63;;;;;;;;;;5037561;28;20381;-81
2023/04/21 16:21:33;;;;;;;3.65;2.53;;;;;;;;;;5037835;28;20025;-81
2023/04/21 16:23:59;;;;;;;6.10;2.05;;;;;;;;;;5055717;28;20088;-80
2023/04/21 16:26:24;;;;;;;3.83;2.00;;;;;;;;;;5005079;28;20029;-80
2023/04/21 16:28:53;;;;;;;2.58;2.20;;;;;;;;;;5020655;28;20021;-82
2023/04/21 16:31:19;;;;;;;3.40;2.72;;;;;;;;;;5022240;28;20029;-81
2023/04/21 16:33:45;;;;;;;4.25;2.50;;;;;;;;;;5021765;28;20051;-81
2023/04/21 16:36:10;;;;;;;4.65;2.28;;;;;;;;;;5020960;28;20454;-81
2023/04/21 16:38:35;;;;;;;3.45;2.28;;;;;;;;;;5036749;28;20152;-81
2023/04/21 16:41:01;;;;;;;5.70;2.65;;;;;;;;;;5055399;28;20127;-80
2023/04/21 16:43:26;;;;;;;4.50;2.22;;;;;;;;;;5054949;28;20485;-80
2023/04/21 16:45:52;;;;;;;3.05;1.92;;;;;;;;;;5037618;28;20462;-83
2023/04/21 16:48:17;;;;;;;4.07;2.38;;;;;;;;;;5055023;28;20114;-81
2023/04/21 16:50:44;;;;;;;4.57;1.85;;;;;;;;;;5033567;28;20045;-81
2023/04/21 16:53:11;;;;;;;2.50;1.75;;;;;;;;;;5055405;28;20059;-80
2023/04/21 16:55:36;;;;;;;1.92;1.45;;;;;;;;;;5020668;28;20339;-80
2023/04/21 16:58:02;;;;;;;1.90;1.70;;;;;;;;;;5037026;28;20029;-81
2023/04/21 17:00:29;;;;;;;2.72;1.98;;;;;;;;;;5054617;28;20047;-80
2023/04/21 17:02:55;;;;;;;3.50;2.30;;;;;;;;;;5020725;28;20029;-82
2023/04/21 17:05:22;;;;;;;4.10;2.45;;;;;;;;;;5020480;28;20049;-81
2023/04/21 17:07:47;;;;;;;4.07;2.55;;;;;;;;;;5036745;28;20086;-81
2023/04/21 17:10:13;;;;;;;3.60;1.98;;;;;;;;;;5037014;28;20032;-82
2023/04/21 17:12:38;;;;;;;3.70;2.63;;;;;;;;;;5036567;28;20058;-80
2023/04/21 17:15:04;;;;;;;4.60;2.38;;;;;;;;;;5004123;28;20040;-80
2023/04/21 17:17:41;;;;;;;3.10;2.08;;;;;;;;;;5020358;28;20439;-80
2023/04/21 17:20:08;;;;;;;2.80;1.70;;;;;;;;;;5021582;28;20033;-82
2023/04/21 17:22:35;;;;;;;4.95;2.55;;;;;;;;;;5020250;28;20025;-82
2023/04/21 17:25:03;;;;;;;3.05;2.35;;;;;;;;;;5020629;28;20028;-82
2023/04/21 17:27:29;;;;;;;1.98;1.75;;;;;;;;;;5020206;28;20032;-82
2023/04/21 17:29:55;;;;;;;2.28;1.58;;;;;;;;;;5036616;28;20366;-82
2023/04/21 17:32:21;;;;;;;2.72;1.98;;;;;;;;;;5020185;28;20025;-81
2023/04/21 17:34:46;;;;;;;5.75;1.73;;;;;;;;;;5036628;28;20446;-81
2023/04/21 17:37:12;;;;;;;2.28;1.88;;;;;;;;;;5036326;28;20078;-79
2023/04/21 17:39:37;;;;;;;2.38;1.67;;;;;;;;;;5020121;28;20357;-80
2023/04/21 17:42:03;;;;;;;2.95;1.52;;;;;;;;;;5019630;28;20070;-81
2023/04/21 17:44:29;;;;;;;1.67;1.45;;;;;;;;;;5036384;28;20027;-82
2023/04/21 17:46:55;;;;;;;3.10;1.73;;;;;;;;;;5036208;28;20029;-80
2023/04/21 17:49:23;;;;;;;2.58;1.65;;;;;;;;;;5035292;28;20477;-82
2023/04/21 17:51:48;;;;;;;1.50;1.23;;;;;;;;;;5020094;28;20124;-81
2023/04/21 17:54:14;;;;;;;1.27;1.17;;;;;;;;;;5016503;28;20120;-82
2023/04/21 17:56:40;;;;;;;1.90;1.30;;;;;;;;;;5035836;28;20037;-82
2023/04/21 17:59:05;;;;;;;1.90;1.67;;;;;;;;;;5019357;28;20036;-82
2023/04/21 18:01:31;;;;;;;1.73;1.38;;;;;;;;;;5019608;28;20029;-83
2023/04/21 18:03:56;;;;;;;4.38;1.48;;;;;;;;;;5035611;28;20029;-82
2023/04/21 18:06:22;;;;;;;2.25;1.67;;;;;;;;;;5035885;28;20033;-82
2023/04/21 18:08:47;;;;;;;2.50;1.63;;;;;;;;;;5035910;28;20037;-82
2023/04/21 18:11:13;;;;;;;4.15;1.85;;;;;;;;;;5035427;28;20029;-82
2023/04/21 18:13:38;;;;;;;2.65;1.67;;;;;;;;;;5036126;28;20029;-81
2023/04/21 18:16:04;;;;;;;3.15;1.90;;;;;;;;;;5035695;28;20041;-82